createdAt,value
2022-08-28T00:00:26.008Z,71.53
2022-08-28T00:01:25.032Z,71.53
2022-08-28T00:02:25.029Z,71.67
2022-08-28T00:03:24.975Z,71.97
2022-08-28T00:04:25.073Z,72.17
2022-08-28T00:05:24.936Z,72.17
2022-08-28T00:06:24.944Z,72.17
2022-08-28T00:07:24.914Z,72.17
2022-08-28T00:08:24.913Z,72.27
2022-08-28T00:09:24.888Z,71.87
2022-08-28T00:10:24.873Z,72.17
2022-08-28T00:11:24.884Z,72.27
2022-08-28T00:12:24.863Z,72.07
2022-08-28T00:13:24.834Z,72.07
2022-08-28T00:14:24.813Z,72.17
2022-08-28T00:15:24.803Z,72.38
2022-08-28T00:16:24.865Z,72.48
2022-08-28T00:17:24.793Z,72.48
2022-08-28T00:18:24.771Z,72.51
2022-08-28T00:19:24.783Z,72.71
2022-08-28T00:20:24.733Z,72.81
2022-08-28T00:21:24.742Z,72.81
2022-08-28T00:22:24.723Z,72.91
2022-08-28T00:23:24.713Z,73.02
2022-08-28T00:24:24.684Z,73.02
2022-08-28T00:25:24.674Z,73.22
2022-08-28T00:26:24.666Z,73.15
2022-08-28T00:27:24.651Z,73.15
2022-08-28T00:28:24.733Z,73.15
2022-08-28T00:29:24.624Z,73.25
2022-08-28T00:30:24.613Z,73.46
2022-08-28T00:31:24.654Z,73.35
2022-08-28T00:32:24.590Z,73.35
2022-08-28T00:33:24.572Z,73.55
2022-08-28T00:34:33.099Z,73.66
2022-08-28T00:35:25.541Z,73.66
2022-08-28T00:36:24.543Z,73.75
2022-08-28T00:37:24.687Z,73.75
2022-08-28T00:38:24.502Z,73.75
2022-08-28T00:39:24.491Z,73.75
2022-08-28T00:40:28.637Z,74.10
2022-08-28T00:41:27.543Z,74.10
2022-08-28T00:42:24.449Z,74.19
2022-08-28T00:43:24.452Z,74.10
2022-08-28T00:44:24.428Z,74.40
2022-08-28T00:45:24.411Z,74.40
2022-08-28T00:46:24.421Z,74.40
2022-08-28T00:47:24.391Z,74.60
2022-08-28T00:48:24.382Z,74.70
2022-08-28T00:49:24.369Z,74.60
2022-08-28T00:50:24.351Z,74.50
2022-08-28T00:51:24.360Z,74.70
2022-08-28T00:52:24.330Z,74.90
2022-08-28T00:53:27.072Z,74.80
2022-08-28T00:54:25.301Z,74.70
2022-08-28T00:55:24.279Z,74.70
2022-08-28T00:56:24.279Z,74.90
2022-08-28T00:57:27.118Z,75.01
2022-08-28T00:58:24.248Z,75.04
2022-08-28T00:59:24.241Z,75.04
2022-08-28T01:00:24.220Z,75.24
2022-08-28T01:01:24.276Z,75.45
2022-08-28T01:02:24.214Z,75.45
2022-08-28T01:03:25.185Z,75.55
2022-08-28T01:04:24.170Z,75.34
2022-08-28T01:05:24.156Z,75.45
2022-08-28T01:06:24.150Z,75.55
2022-08-28T01:07:24.118Z,75.65
2022-08-28T01:08:24.108Z,75.65
2022-08-28T01:09:24.107Z,75.75
2022-08-28T01:10:24.098Z,75.65
2022-08-28T01:11:24.079Z,75.75
2022-08-28T01:12:24.065Z,75.85
2022-08-28T01:13:24.047Z,75.85
2022-08-28T01:14:24.045Z,75.85
2022-08-28T01:15:24.019Z,75.95
2022-08-28T01:16:28.354Z,76.05
2022-08-28T01:17:24.999Z,76.15
2022-08-28T01:18:23.987Z,76.19
2022-08-28T01:19:23.957Z,76.29
2022-08-28T01:20:23.956Z,76.29
2022-08-28T01:21:23.957Z,76.29
2022-08-28T01:22:23.924Z,76.39
2022-08-28T01:23:23.908Z,76.59
2022-08-28T01:24:23.905Z,76.79
2022-08-28T01:25:23.887Z,76.90
2022-08-28T01:26:23.936Z,76.90
2022-08-28T01:27:24.965Z,77.10
2022-08-28T01:28:23.847Z,77.10
2022-08-28T01:29:23.836Z,77.10
2022-08-28T01:30:23.827Z,77.10
2022-08-28T01:31:23.907Z,77.14
2022-08-28T01:32:23.806Z,77.44
2022-08-28T01:33:27.992Z,77.44
2022-08-28T01:34:23.775Z,77.34
2022-08-28T01:35:23.766Z,77.44
2022-08-28T01:36:23.768Z,77.54
2022-08-28T01:37:23.725Z,77.44
2022-08-28T01:38:26.845Z,77.64
2022-08-28T01:39:23.706Z,77.75
2022-08-28T01:40:23.718Z,77.75
2022-08-28T01:41:23.695Z,77.84
2022-08-28T01:42:23.683Z,77.95
2022-08-28T01:43:23.667Z,77.98
2022-08-28T01:44:23.644Z,77.98
2022-08-28T01:45:23.621Z,77.98
2022-08-28T01:46:23.653Z,78.08
2022-08-28T01:47:23.595Z,78.08
2022-08-28T01:48:23.576Z,78.08
2022-08-28T01:49:23.569Z,78.08
2022-08-28T01:50:23.563Z,78.19
2022-08-28T01:51:24.753Z,78.28
2022-08-28T01:52:25.448Z,78.49
2022-08-28T01:53:25.033Z,78.49
2022-08-28T01:54:23.506Z,78.59
2022-08-28T01:55:23.493Z,78.69
2022-08-28T01:56:23.493Z,78.89
2022-08-28T01:57:23.455Z,78.89
2022-08-28T01:58:23.444Z,79.00
2022-08-28T01:59:23.432Z,79.00
2022-08-28T02:00:23.423Z,79.10
2022-08-28T02:01:23.444Z,79.10
2022-08-28T02:02:23.419Z,79.10
2022-08-28T02:03:23.380Z,79.20
2022-08-28T02:04:31.709Z,79.30
2022-08-28T02:05:24.343Z,79.34
2022-08-28T02:06:23.343Z,79.34
2022-08-28T02:07:23.321Z,79.34
2022-08-28T02:08:23.313Z,79.44
2022-08-28T02:09:23.292Z,79.54
2022-08-28T02:10:23.283Z,79.64
2022-08-28T02:11:23.279Z,79.74
2022-08-28T02:12:23.260Z,79.74
2022-08-28T02:13:23.241Z,79.94
2022-08-28T02:14:23.231Z,80.05
2022-08-28T02:15:23.573Z,80.05
2022-08-28T02:16:23.232Z,80.15
2022-08-28T02:17:23.182Z,80.25
2022-08-28T02:18:23.180Z,80.25
2022-08-28T02:19:23.151Z,80.35
2022-08-28T02:20:23.141Z,80.39
2022-08-28T02:21:23.137Z,80.59
2022-08-28T02:22:23.120Z,80.49
2022-08-28T02:23:23.098Z,80.49
2022-08-28T02:24:23.091Z,80.59
2022-08-28T02:25:23.071Z,80.59
2022-08-28T02:26:23.073Z,80.69
2022-08-28T02:27:23.040Z,80.90
2022-08-28T02:28:23.042Z,80.79
2022-08-28T02:29:23.018Z,80.90
2022-08-28T02:30:23.009Z,80.90
2022-08-28T02:31:23.051Z,80.99
2022-08-28T02:32:22.983Z,81.10
2022-08-28T02:33:22.961Z,81.10
2022-08-28T02:34:22.979Z,81.10
2022-08-28T02:35:22.934Z,81.20
2022-08-28T02:36:22.930Z,81.40
2022-08-28T02:37:22.918Z,81.44
2022-08-28T02:38:22.890Z,81.44
2022-08-28T02:39:22.897Z,81.64
2022-08-28T02:40:22.891Z,81.54
2022-08-28T02:41:22.990Z,81.64
2022-08-28T02:42:22.837Z,81.85
2022-08-28T02:43:22.828Z,81.85
2022-08-28T02:44:22.816Z,81.64
2022-08-28T02:45:22.809Z,81.95
2022-08-28T02:46:22.824Z,82.05
2022-08-28T02:47:22.770Z,82.05
2022-08-28T02:48:22.756Z,82.15
2022-08-28T02:49:22.747Z,82.15
2022-08-28T02:50:22.746Z,82.15
2022-08-28T02:51:22.743Z,82.15
2022-08-28T02:52:22.706Z,82.09
2022-08-28T02:53:22.706Z,82.29
2022-08-28T02:54:22.677Z,82.29
2022-08-28T02:55:22.668Z,82.29
2022-08-28T02:56:22.666Z,82.50
2022-08-28T02:57:22.647Z,82.50
2022-08-28T02:58:22.637Z,82.59
2022-08-28T02:59:22.627Z,82.59
2022-08-28T03:00:22.604Z,82.80
2022-08-28T03:01:22.696Z,82.90
2022-08-28T03:02:22.590Z,82.90
2022-08-28T03:03:22.579Z,83.10
2022-08-28T03:04:22.543Z,83.20
2022-08-28T03:05:22.536Z,83.10
2022-08-28T03:06:22.531Z,83.20
2022-08-28T03:07:22.505Z,83.31
2022-08-28T03:08:22.495Z,83.40
2022-08-28T03:09:22.484Z,83.51
2022-08-28T03:10:22.454Z,83.45
2022-08-28T03:11:22.473Z,83.45
2022-08-28T03:12:22.438Z,83.34
2022-08-28T03:13:23.093Z,83.54
2022-08-28T03:14:22.405Z,83.75
2022-08-28T03:15:22.394Z,83.65
2022-08-28T03:16:22.439Z,83.75
2022-08-28T03:17:22.373Z,83.95
2022-08-28T03:18:22.353Z,84.05
2022-08-28T03:19:22.344Z,84.05
2022-08-28T03:20:22.324Z,83.95
2022-08-28T03:21:22.454Z,83.95
2022-08-28T03:22:22.302Z,84.05
2022-08-28T03:23:22.281Z,84.05
2022-08-28T03:24:22.264Z,84.26
2022-08-28T03:25:22.254Z,84.36
2022-08-28T03:26:22.262Z,84.26
2022-08-28T03:27:22.236Z,84.16
2022-08-28T03:28:22.220Z,84.36
2022-08-28T03:29:22.211Z,84.36
2022-08-28T03:30:22.185Z,84.56
2022-08-28T03:31:22.244Z,84.56
2022-08-28T03:32:22.162Z,84.60
2022-08-28T03:33:22.151Z,84.60
2022-08-28T03:34:22.142Z,84.70
2022-08-28T03:35:22.131Z,84.80
2022-08-28T03:36:22.119Z,84.91
2022-08-28T03:37:22.100Z,84.91
2022-08-28T03:38:22.093Z,84.91
2022-08-28T03:39:22.064Z,84.91
2022-08-28T03:40:22.125Z,85.01
2022-08-28T03:41:22.058Z,84.91
2022-08-28T03:42:22.022Z,84.91
2022-08-28T03:43:22.014Z,85.01
2022-08-28T03:44:22.000Z,84.91
2022-08-28T03:45:21.994Z,84.80
2022-08-28T03:46:22.015Z,84.91
2022-08-28T03:47:21.960Z,84.80
2022-08-28T03:48:21.947Z,84.91
2022-08-28T03:49:21.929Z,84.77
2022-08-28T03:50:21.919Z,84.77
2022-08-28T03:51:27.985Z,84.77
2022-08-28T03:52:22.898Z,84.66
2022-08-28T03:53:21.878Z,84.77
2022-08-28T03:54:21.878Z,84.87
2022-08-28T03:55:21.858Z,84.77
2022-08-28T03:56:21.858Z,84.46
2022-08-28T03:57:21.833Z,84.46
2022-08-28T03:58:21.821Z,84.36
2022-08-28T03:59:21.789Z,84.46
2022-08-28T04:00:21.796Z,84.36
2022-08-28T04:01:21.895Z,84.26
2022-08-28T04:02:21.776Z,84.26
2022-08-28T04:03:21.776Z,84.26
2022-08-28T04:04:21.737Z,84.16
2022-08-28T04:05:21.721Z,84.05
2022-08-28T04:06:21.709Z,84.05
2022-08-28T04:07:21.696Z,84.01
2022-08-28T04:08:21.698Z,84.01
2022-08-28T04:09:21.658Z,83.91
2022-08-28T04:10:21.647Z,83.81
2022-08-28T04:11:21.655Z,83.91
2022-08-28T04:12:21.626Z,83.71
2022-08-28T04:13:21.617Z,83.71
2022-08-28T04:14:21.596Z,83.71
2022-08-28T04:15:21.578Z,83.61
2022-08-28T04:16:21.626Z,83.71
2022-08-28T04:17:21.555Z,83.71
2022-08-28T04:18:21.547Z,83.71
2022-08-28T04:19:21.529Z,83.51
2022-08-28T04:20:21.517Z,83.61
2022-08-28T04:21:21.506Z,83.61
2022-08-28T04:22:21.487Z,83.51
2022-08-28T04:23:21.475Z,83.61
2022-08-28T04:24:21.457Z,83.61
2022-08-28T04:25:21.443Z,83.40
2022-08-28T04:26:21.446Z,83.31
2022-08-28T04:27:21.416Z,83.31
2022-08-28T04:28:21.404Z,83.40
2022-08-28T04:29:21.395Z,83.31
2022-08-28T04:30:21.384Z,83.40
2022-08-28T04:31:31.630Z,83.51
2022-08-28T04:32:22.354Z,83.51
2022-08-28T04:33:21.334Z,83.10
2022-08-28T04:34:21.336Z,83.20
2022-08-28T04:35:21.303Z,83.20
2022-08-28T04:36:21.305Z,83.10
2022-08-28T04:37:21.283Z,83.20
2022-08-28T04:38:21.271Z,83.20
2022-08-28T04:39:21.246Z,83.31
2022-08-28T04:40:21.330Z,83.20
2022-08-28T04:41:21.232Z,83.10
2022-08-28T04:42:21.215Z,83.20
2022-08-28T04:43:21.197Z,83.20
2022-08-28T04:44:21.191Z,83.31
2022-08-28T04:45:21.173Z,83.31
2022-08-28T04:46:21.229Z,83.31
2022-08-28T04:47:21.141Z,83.10
2022-08-28T04:48:21.133Z,83.10
2022-08-28T04:49:21.111Z,83.10
2022-08-28T04:50:21.103Z,83.10
2022-08-28T04:51:21.101Z,83.20
2022-08-28T04:52:21.084Z,83.10
2022-08-28T04:53:21.064Z,83.20
2022-08-28T04:54:21.041Z,83.20
2022-08-28T04:55:40.084Z,83.20
2022-08-28T04:56:22.038Z,83.20
2022-08-28T04:57:21.000Z,83.20
2022-08-28T04:58:23.864Z,83.31
2022-08-28T04:59:20.972Z,83.31
2022-08-28T05:00:20.961Z,83.31
2022-08-28T05:01:20.975Z,83.31
2022-08-28T05:02:21.047Z,83.20
2022-08-28T05:03:20.921Z,83.20
2022-08-28T05:04:20.928Z,83.20
2022-08-28T05:05:20.900Z,83.10
2022-08-28T05:06:20.903Z,83.20
2022-08-28T05:07:20.859Z,83.31
2022-08-28T05:08:20.860Z,83.40
2022-08-28T05:09:20.841Z,83.40
2022-08-28T05:10:20.829Z,83.31
2022-08-28T05:11:32.847Z,83.40
2022-08-28T05:12:21.800Z,83.51
2022-08-28T05:13:20.783Z,83.61
2022-08-28T05:14:20.768Z,83.65
2022-08-28T05:15:20.760Z,83.75
2022-08-28T05:16:20.824Z,83.85
2022-08-28T05:17:20.746Z,83.85
2022-08-28T05:18:20.737Z,83.85
2022-08-28T05:19:20.700Z,83.85
2022-08-28T05:20:20.700Z,83.95
2022-08-28T05:21:20.688Z,83.95
2022-08-28T05:22:20.661Z,83.95
2022-08-28T05:23:22.116Z,83.85
2022-08-28T05:24:21.639Z,83.85
2022-08-28T05:25:20.625Z,83.75
2022-08-28T05:26:20.631Z,83.75
2022-08-28T05:27:20.597Z,83.75
2022-08-28T05:28:20.591Z,83.75
2022-08-28T05:29:20.568Z,83.85
2022-08-28T05:30:20.566Z,83.85
2022-08-28T05:31:20.572Z,83.75
2022-08-28T05:32:20.539Z,83.75
2022-08-28T05:33:20.515Z,83.85
2022-08-28T05:34:20.505Z,83.65
2022-08-28T05:35:20.491Z,83.75
2022-08-28T05:36:20.493Z,83.85
2022-08-28T05:37:20.466Z,83.95
2022-08-28T05:38:20.472Z,83.85
2022-08-28T05:39:20.426Z,84.01
2022-08-28T05:40:20.468Z,84.12
2022-08-28T05:41:20.426Z,84.01
2022-08-28T05:42:20.395Z,83.71
2022-08-28T05:43:20.376Z,83.61
2022-08-28T05:44:20.366Z,83.51
2022-08-28T05:45:20.345Z,83.51
2022-08-28T05:46:20.414Z,83.71
2022-08-28T05:47:21.610Z,83.61
2022-08-28T05:48:20.314Z,83.51
2022-08-28T05:49:20.293Z,83.40
2022-08-28T05:50:20.293Z,83.20
2022-08-28T05:51:20.287Z,82.90
2022-08-28T05:52:20.254Z,82.90
2022-08-28T05:53:20.234Z,82.90
2022-08-28T05:54:20.233Z,82.66
2022-08-28T05:55:20.219Z,82.86
2022-08-28T05:56:20.247Z,82.66
2022-08-28T05:57:20.184Z,82.76
2022-08-28T05:58:20.171Z,82.96
2022-08-28T05:59:20.166Z,82.96
2022-08-28T06:00:20.152Z,82.76
2022-08-28T06:01:20.142Z,82.66
2022-08-28T06:02:20.168Z,82.45
2022-08-28T06:03:20.110Z,82.56
2022-08-28T06:04:20.145Z,82.25
2022-08-28T06:05:20.078Z,82.35
2022-08-28T06:06:20.084Z,82.31
2022-08-28T06:07:20.042Z,82.01
2022-08-28T06:08:20.051Z,82.01
2022-08-28T06:09:20.025Z,82.01
2022-08-28T06:10:20.015Z,82.11
2022-08-28T06:11:20.002Z,82.11
2022-08-28T06:12:19.989Z,81.81
2022-08-28T06:13:19.962Z,82.01
2022-08-28T06:14:19.961Z,82.11
2022-08-28T06:15:19.940Z,82.01
2022-08-28T06:16:19.995Z,81.81
2022-08-28T06:17:20.070Z,81.71
2022-08-28T06:18:19.911Z,81.71
2022-08-28T06:19:19.881Z,81.50
2022-08-28T06:20:19.872Z,81.46
2022-08-28T06:21:19.873Z,81.16
2022-08-28T06:22:19.859Z,81.26
2022-08-28T06:23:23.946Z,81.06
2022-08-28T06:24:19.831Z,80.96
2022-08-28T06:25:19.801Z,81.06
2022-08-28T06:26:19.799Z,81.06
2022-08-28T06:27:19.800Z,81.16
2022-08-28T06:28:19.769Z,80.96
2022-08-28T06:29:21.179Z,80.55
2022-08-28T06:30:19.751Z,80.55
2022-08-28T06:31:23.382Z,80.52
2022-08-28T06:32:20.799Z,80.72
2022-08-28T06:33:19.692Z,80.31
2022-08-28T06:34:19.713Z,80.31
2022-08-28T06:35:19.672Z,79.60
2022-08-28T06:36:19.658Z,79.71
2022-08-28T06:37:19.637Z,79.80
2022-08-28T06:38:19.658Z,79.46
2022-08-28T06:39:19.630Z,79.26
2022-08-28T06:40:19.645Z,78.86
2022-08-28T06:41:19.627Z,78.96
2022-08-28T06:42:19.578Z,78.35
2022-08-28T06:43:19.568Z,78.25
2022-08-28T06:44:19.591Z,78.25
2022-08-28T06:45:19.538Z,77.95
2022-08-28T06:46:19.553Z,78.25
2022-08-28T06:47:19.507Z,77.95
2022-08-28T06:48:19.507Z,78.15
2022-08-28T06:49:19.485Z,77.61
2022-08-28T06:50:19.506Z,77.61
2022-08-28T06:51:19.457Z,77.81
2022-08-28T06:52:19.445Z,78.01
2022-08-28T06:53:19.426Z,77.20
2022-08-28T06:54:22.694Z,77.20
2022-08-28T06:55:19.407Z,77.30
2022-08-28T06:56:25.584Z,76.90
2022-08-28T06:57:20.374Z,76.86
2022-08-28T06:58:19.365Z,77.06
2022-08-28T06:59:19.354Z,76.86
2022-08-28T07:00:19.336Z,76.76
2022-08-28T07:01:19.368Z,76.46
2022-08-28T07:02:19.432Z,76.66
2022-08-28T07:03:19.300Z,76.05
2022-08-28T07:04:19.294Z,76.52
2022-08-28T07:05:19.263Z,76.42
2022-08-28T07:06:19.266Z,76.59
2022-08-28T07:07:31.507Z,76.48
2022-08-28T07:08:20.235Z,75.68
2022-08-28T07:09:19.221Z,74.63
2022-08-28T07:10:19.203Z,74.84
2022-08-28T07:11:19.183Z,74.43
2022-08-28T07:12:19.184Z,73.52
2022-08-28T07:13:19.183Z,73.32
2022-08-28T07:14:19.156Z,73.62
2022-08-28T07:15:19.138Z,73.11
2022-08-28T07:16:19.157Z,72.91
2022-08-28T07:17:19.114Z,72.51
2022-08-28T07:18:19.104Z,72.11
2022-08-28T07:19:19.102Z,73.02
2022-08-28T07:20:19.075Z,73.72
2022-08-28T07:21:19.061Z,72.11
2022-08-28T07:22:19.050Z,72.31
2022-08-28T07:23:19.032Z,72.98
2022-08-28T07:24:19.031Z,73.58
2022-08-28T07:25:19.031Z,73.49
2022-08-28T07:26:19.001Z,72.44
2022-08-28T07:27:19.252Z,71.53
2022-08-28T07:28:18.971Z,72.14
2022-08-28T07:29:18.962Z,71.70
2022-08-28T07:30:18.953Z,71.80
2022-08-28T07:31:19.057Z,70.59
2022-08-28T07:32:18.912Z,71.00
2022-08-28T07:33:18.901Z,71.30
2022-08-28T07:34:18.899Z,71.17
2022-08-28T07:35:18.871Z,70.56
2022-08-28T07:36:28.874Z,69.55
2022-08-28T07:37:19.851Z,70.02
2022-08-28T07:38:18.850Z,69.72
2022-08-28T07:39:18.820Z,69.92
2022-08-28T07:40:18.873Z,68.81
2022-08-28T07:41:18.850Z,68.71
2022-08-28T07:42:18.787Z,69.12
2022-08-28T07:43:18.769Z,69.82
2022-08-28T07:44:18.771Z,69.52
2022-08-28T07:45:18.740Z,70.02
2022-08-28T07:46:18.838Z,69.42
2022-08-28T07:47:18.740Z,68.78
2022-08-28T07:48:21.274Z,69.09
2022-08-28T07:49:18.691Z,69.09
2022-08-28T07:50:18.681Z,67.88
2022-08-28T07:51:18.668Z,68.48
2022-08-28T07:52:18.659Z,67.88
2022-08-28T07:53:18.667Z,68.44
2022-08-28T07:54:18.638Z,68.35
2022-08-28T07:55:18.618Z,67.54
2022-08-28T07:56:18.609Z,66.63
2022-08-28T07:57:18.587Z,67.11
2022-08-28T07:58:18.587Z,66.00
2022-08-28T07:59:19.470Z,67.21
2022-08-28T08:00:18.555Z,67.07
2022-08-28T08:01:18.583Z,67.07
2022-08-28T08:02:18.518Z,65.87
2022-08-28T08:03:18.534Z,65.53
2022-08-28T08:04:18.516Z,65.53
2022-08-28T08:05:18.485Z,66.14
2022-08-28T08:06:18.476Z,65.00
2022-08-28T08:07:18.456Z,65.00
2022-08-28T08:08:18.448Z,64.10
2022-08-28T08:09:18.430Z,64.80
2022-08-28T08:10:20.612Z,65.91
2022-08-28T08:11:18.407Z,65.20
2022-08-28T08:12:18.396Z,63.70
2022-08-28T08:13:18.376Z,63.87
2022-08-28T08:14:18.369Z,63.70
2022-08-28T08:15:18.350Z,63.59
2022-08-28T08:16:18.390Z,63.79
2022-08-28T08:17:18.325Z,64.60
2022-08-28T08:18:18.805Z,63.82
2022-08-28T08:19:18.300Z,64.33
2022-08-28T08:20:18.288Z,63.02
2022-08-28T08:21:18.289Z,63.59
2022-08-28T08:22:18.255Z,62.22
2022-08-28T08:23:18.246Z,63.32
2022-08-28T08:24:20.018Z,64.13
2022-08-28T08:25:18.225Z,63.70
2022-08-28T08:26:18.225Z,63.09
2022-08-28T08:27:18.194Z,63.76
2022-08-28T08:28:18.187Z,62.43
2022-08-28T08:29:18.167Z,61.33
2022-08-28T08:30:18.165Z,60.93
2022-08-28T08:31:18.207Z,60.52
2022-08-28T08:32:18.126Z,61.35
2022-08-28T08:33:18.124Z,62.19
2022-08-28T08:34:18.115Z,63.29
2022-08-28T08:35:18.085Z,61.58
2022-08-28T08:36:18.093Z,62.26
2022-08-28T08:37:18.056Z,61.35
2022-08-28T08:38:18.054Z,61.83
2022-08-28T08:39:18.033Z,62.70
2022-08-28T08:40:18.052Z,61.27
2022-08-28T08:41:18.023Z,61.64
2022-08-28T08:42:18.005Z,59.11
2022-08-28T08:43:17.986Z,59.44
2022-08-28T08:44:17.966Z,60.21
2022-08-28T08:45:17.954Z,60.41
2022-08-28T08:46:17.965Z,58.83
2022-08-28T08:47:18.043Z,59.81
2022-08-28T08:48:17.924Z,60.14
2022-08-28T08:49:17.903Z,59.13
2022-08-28T08:50:17.894Z,59.33
2022-08-28T08:51:17.876Z,59.06
2022-08-28T08:52:17.889Z,60.10
2022-08-28T08:53:17.855Z,60.82
2022-08-28T08:54:17.847Z,60.65
2022-08-28T08:55:17.818Z,60.75
2022-08-28T08:56:17.815Z,61.76
2022-08-28T08:57:17.807Z,61.86
2022-08-28T08:58:17.875Z,62.26
2022-08-28T08:59:17.773Z,61.66
2022-08-28T09:00:17.765Z,61.52
2022-08-28T09:01:17.800Z,61.10
2022-08-28T09:02:17.742Z,61.87
2022-08-28T09:03:17.774Z,60.06
2022-08-28T09:04:21.624Z,59.77
2022-08-28T09:05:17.705Z,60.57
2022-08-28T09:06:17.684Z,59.64
2022-08-28T09:07:17.662Z,60.24
2022-08-28T09:08:17.674Z,59.23
2022-08-28T09:09:17.642Z,58.53
2022-08-28T09:10:17.634Z,58.63
2022-08-28T09:11:17.612Z,58.63
2022-08-28T09:12:17.603Z,58.94
2022-08-28T09:13:17.603Z,59.03
2022-08-28T09:14:17.574Z,59.03
2022-08-28T09:15:17.575Z,59.61
2022-08-28T09:16:17.602Z,59.98
2022-08-28T09:17:17.532Z,58.07
2022-08-28T09:18:17.543Z,58.05
2022-08-28T09:19:17.514Z,58.32
2022-08-28T09:20:17.497Z,57.22
2022-08-28T09:21:17.480Z,56.52
2022-08-28T09:22:17.473Z,56.72
2022-08-28T09:23:17.453Z,56.79
2022-08-28T09:24:17.480Z,55.12
2022-08-28T09:25:17.421Z,56.62
2022-08-28T09:26:17.422Z,57.69
2022-08-28T09:27:17.401Z,55.07
2022-08-28T09:28:17.400Z,54.97
2022-08-28T09:29:17.376Z,56.74
2022-08-28T09:30:17.401Z,52.04
2022-08-28T09:31:20.039Z,51.94
2022-08-28T09:32:17.340Z,53.22
2022-08-28T09:33:17.321Z,52.42
2022-08-28T09:34:17.313Z,52.19
2022-08-28T09:35:17.300Z,51.52
2022-08-28T09:36:17.313Z,52.49
2022-08-28T09:37:17.270Z,51.89
2022-08-28T09:38:17.252Z,51.62
2022-08-28T09:39:17.250Z,52.19
2022-08-28T09:40:17.298Z,52.49
2022-08-28T09:41:17.230Z,52.37
2022-08-28T09:42:17.206Z,53.96
2022-08-28T09:43:17.190Z,51.35
2022-08-28T09:44:17.190Z,52.74
2022-08-28T09:45:17.179Z,52.51
2022-08-28T09:46:17.243Z,49.93
2022-08-28T09:47:17.150Z,49.75
2022-08-28T09:48:17.130Z,50.57
2022-08-28T09:49:17.117Z,50.99
2022-08-28T09:50:17.101Z,52.02
2022-08-28T09:51:18.090Z,53.22
2022-08-28T09:52:20.773Z,53.09
2022-08-28T09:53:18.059Z,52.19
2022-08-28T09:54:17.058Z,52.97
2022-08-28T09:55:17.033Z,53.44
2022-08-28T09:56:17.030Z,52.55
2022-08-28T09:57:17.009Z,50.82
2022-08-28T09:58:17.022Z,49.93
2022-08-28T09:59:16.990Z,49.83
2022-08-28T10:00:16.971Z,49.65
2022-08-28T10:01:17.019Z,50.17
2022-08-28T10:02:16.939Z,51.87
2022-08-28T10:03:16.929Z,50.79
2022-08-28T10:04:16.995Z,50.99
2022-08-28T10:05:16.919Z,50.99
2022-08-28T10:06:16.933Z,51.10
2022-08-28T10:07:16.900Z,52.29
2022-08-28T10:08:16.949Z,50.92
2022-08-28T10:09:16.939Z,53.59
2022-08-28T10:10:17.782Z,51.89
2022-08-28T10:11:16.829Z,52.47
2022-08-28T10:12:16.816Z,52.42
2022-08-28T10:13:16.807Z,50.20
2022-08-28T10:14:16.798Z,50.10
2022-08-28T10:15:16.788Z,50.57
2022-08-28T10:16:16.843Z,50.55
2022-08-28T10:17:16.757Z,49.26
2022-08-28T10:18:16.739Z,48.07
2022-08-28T10:19:16.730Z,49.18
2022-08-28T10:20:16.713Z,50.57
2022-08-28T10:21:16.718Z,49.26
2022-08-28T10:22:16.681Z,50.05
2022-08-28T10:23:17.753Z,48.96
2022-08-28T10:24:16.661Z,49.85
2022-08-28T10:25:17.657Z,48.74
2022-08-28T10:26:16.670Z,48.81
2022-08-28T10:27:16.630Z,47.34
2022-08-28T10:28:16.619Z,48.76
2022-08-28T10:29:16.598Z,48.36
2022-08-28T10:30:16.590Z,48.76
2022-08-28T10:31:16.707Z,49.43
2022-08-28T10:32:16.568Z,48.74
2022-08-28T10:33:16.548Z,46.75
2022-08-28T10:34:16.542Z,46.97
2022-08-28T10:35:16.518Z,47.59
2022-08-28T10:36:32.149Z,48.19
2022-08-28T10:37:17.509Z,48.49
2022-08-28T10:38:16.481Z,47.99
2022-08-28T10:39:16.471Z,48.07
2022-08-28T10:40:16.536Z,48.96
2022-08-28T10:41:16.438Z,47.34
2022-08-28T10:42:16.427Z,47.05
2022-08-28T10:43:16.432Z,45.73
2022-08-28T10:44:16.400Z,46.42
2022-08-28T10:45:16.390Z,46.80
2022-08-28T10:46:16.463Z,47.00
2022-08-28T10:47:16.358Z,45.51
2022-08-28T10:48:16.345Z,46.90
2022-08-28T10:49:16.352Z,46.90
2022-08-28T10:50:16.328Z,47.28
2022-08-28T10:51:16.317Z,44.97
2022-08-28T10:52:16.292Z,45.17
2022-08-28T10:53:16.277Z,44.27
2022-08-28T10:54:16.259Z,44.75
2022-08-28T10:55:16.266Z,43.76
2022-08-28T10:56:16.241Z,44.63
2022-08-28T10:57:16.308Z,43.71
2022-08-28T10:58:24.585Z,41.46
2022-08-28T10:59:17.207Z,42.27
2022-08-28T11:00:16.188Z,43.98
2022-08-28T11:01:16.225Z,45.15
2022-08-28T11:02:16.206Z,44.75
2022-08-28T11:03:33.509Z,43.16
2022-08-28T11:04:24.723Z,43.88
2022-08-28T11:05:17.120Z,45.47
2022-08-28T11:06:16.129Z,43.66
2022-08-28T11:07:16.097Z,45.64
2022-08-28T11:08:16.087Z,45.12
2022-08-28T11:09:16.067Z,44.13
2022-08-28T11:10:16.054Z,44.01
2022-08-28T11:11:16.039Z,43.62
2022-08-28T11:12:16.058Z,43.54
2022-08-28T11:13:16.029Z,46.44
2022-08-28T11:14:16.256Z,45.84
2022-08-28T11:15:15.990Z,44.75
2022-08-28T11:16:15.995Z,44.15
2022-08-28T11:17:15.961Z,45.15
2022-08-28T11:18:15.978Z,45.25
2022-08-28T11:19:15.937Z,45.34
2022-08-28T11:20:15.935Z,44.45
2022-08-28T11:21:15.907Z,45.15
2022-08-28T11:22:15.899Z,45.45
2022-08-28T11:23:15.887Z,45.32
2022-08-28T11:24:15.900Z,46.42
2022-08-28T11:25:15.857Z,46.09
2022-08-28T11:26:15.839Z,45.20
2022-08-28T11:27:15.831Z,45.30
2022-08-28T11:28:15.827Z,42.60
2022-08-28T11:29:15.798Z,46.47
2022-08-28T11:30:15.891Z,44.78
2022-08-28T11:31:18.982Z,41.71
2022-08-28T11:32:16.776Z,43.71
2022-08-28T11:33:15.747Z,44.04
2022-08-28T11:34:15.737Z,43.93
2022-08-28T11:35:15.717Z,45.92
2022-08-28T11:36:15.720Z,46.12
2022-08-28T11:37:15.696Z,45.90
2022-08-28T11:38:19.590Z,45.40
2022-08-28T11:39:15.708Z,44.21
2022-08-28T11:40:15.759Z,43.62
2022-08-28T11:41:15.658Z,41.93
2022-08-28T11:42:15.636Z,42.25
2022-08-28T11:43:16.236Z,41.28
2022-08-28T11:44:15.614Z,41.31
2022-08-28T11:45:15.598Z,43.05
2022-08-28T11:46:15.614Z,45.03
2022-08-28T11:47:15.577Z,45.73
2022-08-28T11:48:15.557Z,45.93
2022-08-28T11:49:15.546Z,45.71
2022-08-28T11:50:15.527Z,46.38
2022-08-28T11:51:15.507Z,46.83
2022-08-28T11:52:15.509Z,45.42
2022-08-28T11:53:15.500Z,43.91
2022-08-28T11:54:15.486Z,43.89
2022-08-28T11:55:15.459Z,43.60
2022-08-28T11:56:16.028Z,42.38
2022-08-28T11:57:16.438Z,41.20
2022-08-28T11:58:44.453Z,42.68
2022-08-28T11:59:44.433Z,41.69
2022-08-28T12:00:44.423Z,43.46
2022-08-28T12:01:44.412Z,41.97
2022-08-28T12:02:44.502Z,41.67
2022-08-28T12:03:44.422Z,42.19
2022-08-28T12:04:44.421Z,43.57
2022-08-28T12:05:45.312Z,42.29
2022-08-28T12:06:44.344Z,43.38
2022-08-28T12:07:44.334Z,42.98
2022-08-28T12:08:44.313Z,42.41
2022-08-28T12:09:44.432Z,42.41
2022-08-28T12:10:44.292Z,41.81
2022-08-28T12:11:44.294Z,43.00
2022-08-28T12:12:44.265Z,42.90
2022-08-28T12:13:44.263Z,42.60
2022-08-28T12:14:44.263Z,43.57
2022-08-28T12:15:44.303Z,44.37
2022-08-28T12:16:44.212Z,44.27
2022-08-28T12:17:44.218Z,44.05
2022-08-28T12:18:44.193Z,40.86
2022-08-28T12:19:55.178Z,39.40
2022-08-28T12:20:45.191Z,39.50
2022-08-28T12:21:44.163Z,41.79
2022-08-28T12:22:44.142Z,41.60
2022-08-28T12:23:44.145Z,40.41
2022-08-28T12:24:44.161Z,42.29
2022-08-28T12:25:44.107Z,42.09
2022-08-28T12:26:44.120Z,41.08
2022-08-28T12:27:44.073Z,42.46
2022-08-28T12:28:44.062Z,42.27
2022-08-28T12:29:44.052Z,42.05
2022-08-28T12:30:44.069Z,43.13
2022-08-28T12:31:44.022Z,42.22
2022-08-28T12:32:44.032Z,41.33
2022-08-28T12:33:44.013Z,40.23
2022-08-28T12:34:43.992Z,41.49
2022-08-28T12:35:44.103Z,41.10
2022-08-28T12:36:43.972Z,39.12
2022-08-28T12:37:52.551Z,39.72
2022-08-28T12:38:44.952Z,39.00
2022-08-28T12:39:43.923Z,41.67
2022-08-28T12:40:44.046Z,41.47
2022-08-28T12:41:43.917Z,39.48
2022-08-28T12:42:43.884Z,37.70
2022-08-28T12:43:46.383Z,39.58
2022-08-28T12:44:43.891Z,39.48
2022-08-28T12:45:43.902Z,39.40
2022-08-28T12:46:43.832Z,38.61
2022-08-28T12:47:43.833Z,37.84
2022-08-28T12:48:43.812Z,39.42
2022-08-28T12:49:43.804Z,39.03
2022-08-28T12:50:43.800Z,39.12
2022-08-28T12:51:43.774Z,39.12
2022-08-28T12:52:43.764Z,38.92